Angler Guide Weather for Bancroft -
Bancroft, Ontario Current Weather Conditions
Enter your "Place, State", US Zip Code or ICAO:  
Forecast Information Radar Information
Bancroft, Ontario, Canada  Lat: 45.07N, Lon: 77.87W
ICAO Used: CYWA
Current Conditions
Updated:
Sun & Moon Information:
Temp: N/A
Humidity: N/A
Wind Speed: N/A
Barometer: N/A
Dewpoint: N/A
Heat Index: N/A
Wind Chill: N/A
Civil Twilight: 6:59 AM EDT
Moonrise: 6:03 AM EDT Moon Phase:
Waning Crescent Moon
Waning Crescent Moon
Moonset: 6:14 PM EDT
Sunrise: 7:29 AM EDT
Sunset: 6:21 PM EDT
Civil Twilight: 6:51 PM EDT
Forecast for Bancroft, ON:
(Forecast based on TAF for )
0111 PM EDT MON NOV 06 2006
  
AFTERNOONEVENINGOVERNIGHT
PARTLY CLOUDYPARTLY CLOUDYPARTLY CLOUDY
Partly
Cloudy
Partly
Cloudy
Partly
Cloudy
TAF based forecast:
Dated: 0111 PM EDT MON NOV 06 2006
Afternoon...Partly cloudy with winds from the south east at 6 mph. Possible periods of mostly cloudy.
Evening...Partly cloudy with winds from the south east at 6 mph. Then becoming partly cloudy with winds from the south at 6 mph. Possible periods of mostly cloudy.
Overnight...Partly cloudy with winds from the south at 6 mph. Possible periods of mostly cloudy.
Original Encoded TAF:
Dated: 0111 PM EDT MON NOV 06 2006
2006/11/06 17:11
CYWA 061711Z 061806 13005KT P6SM SCT040 TEMPO 1806 BKN040 BECMG 2301 19005KT=




Powered by Angler Guide.com
Copyright 2007, all rights reserved.